Terminal Aerodrome Forecast
Issued by NWS Mt. Holly, NJ

Home | Current Version | Previous Version | Text Only | Print | Product List | Glossary On
Versions: 1 2 3 4 5 6 7 8 9 10 11 12 13 14 15 16 17 18 19 20
000
FTUS41 KPHI 041138
TAFACY
TAF
KACY 041138Z 0412/0512 VRB03KT 2SM BR BKN250
     FM041230 03004KT 4SM BR BKN250
     FM041300 05008KT P6SM SCT080
     FM041600 08014KT P6SM BKN060
     FM050200 04010KT P6SM BKN025=

USA.gov is the U.S. government's official web portal to all federal, state and local government web resources and services.